createdAt,value
2023-05-03T00:01:57.892Z,7.80
2023-05-03T00:04:25.227Z,7.83
2023-05-03T00:06:52.723Z,8.40
2023-05-03T00:09:21.036Z,9.50
2023-05-03T00:11:48.358Z,8.90
2023-05-03T00:14:15.882Z,8.70
2023-05-03T00:16:43.228Z,9.00
2023-05-03T00:19:15.042Z,9.30
2023-05-03T00:21:39.540Z,8.87
2023-05-03T00:24:06.976Z,8.20
2023-05-03T00:26:34.286Z,8.93
2023-05-03T00:29:01.584Z,8.67
2023-05-03T00:31:28.942Z,8.07
2023-05-03T00:33:56.387Z,8.37
2023-05-03T00:36:23.689Z,8.90
2023-05-03T00:38:51.062Z,8.83
2023-05-03T00:41:18.441Z,8.60
2023-05-03T00:43:45.749Z,9.00
2023-05-03T00:46:17.148Z,8.60
2023-05-03T00:48:42.171Z,9.27
2023-05-03T00:51:11.157Z,9.07
2023-05-03T00:53:38.465Z,9.13
2023-05-03T00:56:06.794Z,8.77
2023-05-03T00:58:35.989Z,9.83
2023-05-03T01:01:03.315Z,10.70
2023-05-03T01:03:32.091Z,9.20
2023-05-03T01:06:10.342Z,9.30
2023-05-03T01:08:45.271Z,9.17
2023-05-03T01:11:14.151Z,9.93
2023-05-03T01:13:43.083Z,9.90
2023-05-03T01:16:14.899Z,9.13
2023-05-03T01:18:45.993Z,8.87
2023-05-03T01:21:14.184Z,9.43
2023-05-03T01:23:43.037Z,9.77
2023-05-03T01:26:17.091Z,8.60
2023-05-03T01:28:44.472Z,9.00
2023-05-03T01:31:12.124Z,9.40
2023-05-03T01:33:43.942Z,8.60
2023-05-03T01:36:15.625Z,9.20
2023-05-03T01:38:43.460Z,9.07
2023-05-03T01:41:12.142Z,10.90
2023-05-03T01:43:40.797Z,8.90
2023-05-03T01:46:08.496Z,9.90
2023-05-03T01:48:35.998Z,9.33
2023-05-03T01:51:03.390Z,9.20
2023-05-03T01:53:30.746Z,8.27
2023-05-03T01:55:58.128Z,9.03
2023-05-03T01:58:25.562Z,7.90
2023-05-03T02:00:52.887Z,9.37
2023-05-03T02:03:20.617Z,8.23
2023-05-03T02:05:48.652Z,8.87
2023-05-03T02:08:16.496Z,8.40
2023-05-03T02:10:46.452Z,9.37
2023-05-03T02:13:13.833Z,9.20
2023-05-03T02:15:41.203Z,8.50
2023-05-03T02:18:09.541Z,9.70
2023-05-03T02:20:38.002Z,9.73
2023-05-03T02:23:05.625Z,10.70
2023-05-03T02:25:33.022Z,9.47
2023-05-03T02:28:01.071Z,9.50
2023-05-03T02:30:29.392Z,9.37
2023-05-03T02:32:56.770Z,8.73
2023-05-03T02:35:24.137Z,9.20
2023-05-03T02:37:51.432Z,8.70
2023-05-03T02:40:18.878Z,8.90
2023-05-03T02:42:46.185Z,9.33
2023-05-03T02:45:13.547Z,9.70
2023-05-03T02:47:40.933Z,10.30
2023-05-03T02:50:08.497Z,9.17
2023-05-03T02:52:35.876Z,7.63
2023-05-03T02:55:03.261Z,9.90
2023-05-03T02:57:30.552Z,10.20
2023-05-03T02:59:57.856Z,8.20
2023-05-03T03:02:25.969Z,8.60
2023-05-03T03:04:53.455Z,9.53
2023-05-03T03:07:20.809Z,9.10
2023-05-03T03:09:48.185Z,9.30
2023-05-03T03:12:15.647Z,8.70
2023-05-03T03:14:44.595Z,9.27
2023-05-03T03:17:12.840Z,8.47
2023-05-03T03:19:40.209Z,9.23
2023-05-03T03:22:07.592Z,9.10
2023-05-03T03:24:34.891Z,9.13
2023-05-03T03:27:02.282Z,8.63
2023-05-03T03:29:30.720Z,8.53
2023-05-03T03:31:58.209Z,9.30
2023-05-03T03:34:25.662Z,9.03
2023-05-03T03:36:53.044Z,8.53
2023-05-03T03:39:20.841Z,9.50
2023-05-03T03:41:48.229Z,9.40
2023-05-03T03:44:15.546Z,8.47
2023-05-03T03:46:42.993Z,9.30
2023-05-03T03:49:10.461Z,10.27
2023-05-03T03:51:38.557Z,9.47
2023-05-03T03:54:05.944Z,9.40
2023-05-03T03:56:33.332Z,9.97
2023-05-03T03:59:00.774Z,9.20
2023-05-03T04:01:28.227Z,8.90
2023-05-03T04:03:55.930Z,8.57
2023-05-03T04:06:23.296Z,9.00
2023-05-03T04:08:50.658Z,9.87
2023-05-03T04:11:18.026Z,9.20
2023-05-03T04:13:45.334Z,9.53
2023-05-03T04:16:12.707Z,9.00
2023-05-03T04:18:40.081Z,9.63
2023-05-03T04:21:07.943Z,9.37
2023-05-03T04:23:35.488Z,10.03
2023-05-03T04:26:04.820Z,9.60
2023-05-03T04:28:31.911Z,8.63
2023-05-03T04:30:59.956Z,8.83
2023-05-03T04:33:28.963Z,8.97
2023-05-03T04:35:56.329Z,9.20
2023-05-03T04:38:24.006Z,8.90
2023-05-03T04:40:51.323Z,8.80
2023-05-03T04:43:18.680Z,9.23
2023-05-03T04:45:45.991Z,8.83
2023-05-03T04:48:13.612Z,8.80
2023-05-03T04:50:41.130Z,7.90
2023-05-03T04:53:08.493Z,8.17
2023-05-03T04:55:35.804Z,7.67
2023-05-03T04:58:03.172Z,9.40
2023-05-03T05:00:30.716Z,8.30
2023-05-03T05:02:58.689Z,9.27
2023-05-03T05:05:26.154Z,8.27
2023-05-03T05:07:53.531Z,8.10
2023-05-03T05:10:20.852Z,8.77
2023-05-03T05:12:48.217Z,8.93
2023-05-03T05:15:15.651Z,8.63
2023-05-03T05:17:43.229Z,8.87
2023-05-03T05:20:12.948Z,9.83
2023-05-03T05:22:40.308Z,9.40
2023-05-03T05:25:08.387Z,8.80
2023-05-03T05:27:36.164Z,8.80
2023-05-03T05:30:04.510Z,9.00
2023-05-03T05:32:32.189Z,8.50
2023-05-03T05:34:59.652Z,8.60
2023-05-03T05:37:27.420Z,8.93
2023-05-03T05:39:55.375Z,7.57
2023-05-03T05:42:22.793Z,8.40
2023-05-03T05:44:51.821Z,8.50
2023-05-03T05:47:19.193Z,7.90
2023-05-03T05:49:46.649Z,8.40
2023-05-03T05:52:14.009Z,8.30
2023-05-03T05:54:41.335Z,7.83
2023-05-03T05:57:08.725Z,7.60
2023-05-03T05:59:36.072Z,7.87
2023-05-03T06:02:03.425Z,7.43
2023-05-03T06:04:30.781Z,7.73
2023-05-03T06:06:58.269Z,8.60
2023-05-03T06:09:25.690Z,7.83
2023-05-03T06:11:53.045Z,7.70
2023-05-03T06:14:20.430Z,7.43
2023-05-03T06:16:47.865Z,6.87
2023-05-03T06:19:16.090Z,6.30
2023-05-03T06:21:43.445Z,6.60
2023-05-03T06:24:10.798Z,7.13
2023-05-03T06:26:38.180Z,7.63
2023-05-03T06:29:05.744Z,7.00
2023-05-03T06:31:33.122Z,6.97
2023-05-03T06:34:00.820Z,6.90
2023-05-03T06:36:29.654Z,6.63
2023-05-03T06:38:57.220Z,6.97
2023-05-03T06:41:24.656Z,7.37
2023-05-03T06:43:52.053Z,6.13
2023-05-03T06:46:20.438Z,6.40
2023-05-03T06:48:48.017Z,6.60
2023-05-03T06:51:15.608Z,7.03
2023-05-03T06:53:42.990Z,6.40
2023-05-03T06:56:10.336Z,6.77
2023-05-03T06:58:37.758Z,6.80
2023-05-03T07:01:05.090Z,6.30
2023-05-03T07:03:32.613Z,6.80
2023-05-03T07:06:00.548Z,6.17
2023-05-03T07:08:27.924Z,5.93
2023-05-03T07:10:55.377Z,6.07
2023-05-03T07:13:22.747Z,5.70
2023-05-03T07:15:50.151Z,6.20
2023-05-03T07:18:17.560Z,6.10
2023-05-03T07:20:44.981Z,6.00
2023-05-03T07:23:12.372Z,6.17
2023-05-03T07:25:39.921Z,5.83
2023-05-03T07:28:07.284Z,6.57
2023-05-03T07:30:34.765Z,5.93
2023-05-03T07:33:02.241Z,5.90
2023-05-03T07:35:30.335Z,5.83
2023-05-03T07:37:57.721Z,6.17
2023-05-03T07:40:25.433Z,5.70
2023-05-03T07:42:52.734Z,5.73
2023-05-03T07:45:20.833Z,6.43
2023-05-03T07:47:48.231Z,6.30
2023-05-03T07:50:15.569Z,5.77
2023-05-03T07:52:43.413Z,5.77
2023-05-03T07:55:10.884Z,5.90
2023-05-03T07:57:38.253Z,6.40
2023-05-03T08:00:06.033Z,6.07
2023-05-03T08:02:33.663Z,6.23
2023-05-03T08:05:01.354Z,7.00
2023-05-03T08:07:29.494Z,5.60
2023-05-03T08:09:58.403Z,6.00
2023-05-03T08:12:26.153Z,5.73
2023-05-03T08:14:54.306Z,6.70
2023-05-03T08:17:22.260Z,6.70
2023-05-03T08:19:50.246Z,6.43
2023-05-03T08:22:17.964Z,6.23
2023-05-03T08:24:45.282Z,5.80
2023-05-03T08:27:12.667Z,5.50
2023-05-03T08:29:40.179Z,6.50
2023-05-03T08:32:07.573Z,6.13
2023-05-03T08:34:35.017Z,6.17
2023-05-03T08:37:04.291Z,6.20
2023-05-03T08:39:32.349Z,6.10
2023-05-03T08:42:00.389Z,5.80
2023-05-03T08:44:29.552Z,6.17
2023-05-03T08:46:56.956Z,6.50
2023-05-03T08:49:24.719Z,8.10
2023-05-03T08:51:52.280Z,6.10
2023-05-03T08:54:21.123Z,6.30
2023-05-03T08:56:49.262Z,5.73
2023-05-03T08:59:17.420Z,5.97
2023-05-03T09:01:44.957Z,5.63
2023-05-03T09:04:12.924Z,6.03
2023-05-03T09:06:40.607Z,6.10
2023-05-03T09:09:08.689Z,5.93
2023-05-03T09:11:37.895Z,5.03
2023-05-03T09:14:12.365Z,5.97
2023-05-03T09:16:40.889Z,6.33
2023-05-03T09:19:10.524Z,5.97
2023-05-03T09:21:38.558Z,6.00
2023-05-03T09:24:15.414Z,5.50
2023-05-03T09:26:43.257Z,5.17
2023-05-03T09:29:10.574Z,5.60
2023-05-03T09:31:38.097Z,5.70
2023-05-03T09:34:07.232Z,5.27
2023-05-03T09:36:36.136Z,5.57
2023-05-03T09:39:04.980Z,5.87
2023-05-03T09:41:32.469Z,5.20
2023-05-03T09:44:01.483Z,5.87
2023-05-03T09:46:30.055Z,5.43
2023-05-03T09:48:58.201Z,4.90
2023-05-03T09:51:26.007Z,5.00
2023-05-03T09:53:54.930Z,5.57
2023-05-03T09:56:23.938Z,5.90
2023-05-03T09:58:51.305Z,6.00
2023-05-03T10:01:18.954Z,5.50
2023-05-03T10:03:50.206Z,5.90
2023-05-03T10:06:26.698Z,5.80
2023-05-03T10:08:55.682Z,5.40
2023-05-03T10:11:24.656Z,5.40
2023-05-03T10:13:52.095Z,5.30
2023-05-03T10:16:21.095Z,5.77
2023-05-03T10:18:52.993Z,5.57
2023-05-03T10:21:27.787Z,4.80
2023-05-03T10:24:12.853Z,5.83
2023-05-03T10:26:44.757Z,6.03
2023-05-03T10:29:30.354Z,5.17
2023-05-03T10:31:57.794Z,5.60
2023-05-03T10:34:25.685Z,5.00
2023-05-03T10:36:56.706Z,5.37
2023-05-03T10:39:24.067Z,5.50
2023-05-03T10:41:58.439Z,4.80
2023-05-03T10:44:30.414Z,5.97
2023-05-03T10:46:58.147Z,5.03
2023-05-03T10:49:26.353Z,6.23
2023-05-03T10:51:53.715Z,5.93
2023-05-03T10:54:21.093Z,5.70
2023-05-03T10:56:49.399Z,5.63
2023-05-03T10:59:17.045Z,5.30
2023-05-03T11:01:46.812Z,6.07
2023-05-03T11:04:18.599Z,5.17
2023-05-03T11:06:47.632Z,4.83
2023-05-03T11:09:15.372Z,4.67
2023-05-03T11:11:43.290Z,4.63
2023-05-03T11:14:12.907Z,5.07
2023-05-03T11:16:43.543Z,5.30
2023-05-03T11:19:11.261Z,4.93
2023-05-03T11:21:38.781Z,5.00
2023-05-03T11:24:06.446Z,4.80
2023-05-03T11:26:39.920Z,5.03
2023-05-03T11:29:08.984Z,5.50
2023-05-03T11:31:36.702Z,4.93
2023-05-03T11:34:04.134Z,5.30
2023-05-03T11:36:31.490Z,4.83
2023-05-03T11:38:58.817Z,4.60
2023-05-03T11:41:27.098Z,5.27
2023-05-03T11:44:04.088Z,4.17
2023-05-03T11:46:26.378Z,4.23
2023-05-03T11:48:53.818Z,4.33
2023-05-03T11:51:24.254Z,5.17
2023-05-03T11:53:52.143Z,3.83
2023-05-03T11:56:20.698Z,4.43
2023-05-03T11:58:56.492Z,4.47
2023-05-03T12:01:25.789Z,4.53
2023-05-03T12:03:54.086Z,4.60
2023-05-03T12:06:22.357Z,3.77
2023-05-03T12:08:50.305Z,4.00
2023-05-03T12:11:18.805Z,4.17
2023-05-03T12:13:48.722Z,4.60
2023-05-03T12:16:18.543Z,4.80
2023-05-03T12:18:47.810Z,4.40
2023-05-03T12:23:45.926Z,4.10
2023-05-03T12:26:14.969Z,4.30
2023-05-03T12:28:42.834Z,4.30
2023-05-03T12:31:12.957Z,4.90
2023-05-03T12:33:39.348Z,4.10
2023-05-03T12:36:09.615Z,4.43
2023-05-03T12:38:37.817Z,4.33
2023-05-03T12:41:08.756Z,5.00
2023-05-03T12:43:34.571Z,4.40
2023-05-03T12:46:25.760Z,4.50
2023-05-03T12:48:32.920Z,3.67
2023-05-03T12:51:17.555Z,4.50
2023-05-03T12:53:29.527Z,3.90
2023-05-03T12:55:58.607Z,3.70
2023-05-03T12:58:51.860Z,4.50
2023-05-03T13:03:32.450Z,3.77
2023-05-03T13:05:54.194Z,4.10
2023-05-03T13:08:22.271Z,3.43
2023-05-03T13:10:50.042Z,3.90
2023-05-03T13:13:17.519Z,3.70
2023-05-03T13:15:44.887Z,4.50
2023-05-03T13:18:14.051Z,3.40
2023-05-03T13:20:41.416Z,3.40
2023-05-03T13:23:08.852Z,3.27
2023-05-03T13:25:37.705Z,3.90
2023-05-03T13:28:05.091Z,3.37
2023-05-03T13:30:32.472Z,3.80
2023-05-03T13:32:59.950Z,3.93
2023-05-03T13:35:27.279Z,3.57
2023-05-03T13:37:54.950Z,3.70
2023-05-03T13:40:23.937Z,3.60
2023-05-03T13:42:51.393Z,4.10
2023-05-03T13:45:19.488Z,3.53
2023-05-03T13:48:14.275Z,4.03
2023-05-03T13:50:15.972Z,3.80
2023-05-03T13:52:44.686Z,3.30
2023-05-03T13:55:12.091Z,3.67
2023-05-03T13:57:39.463Z,3.43
2023-05-03T14:00:08.398Z,3.47
2023-05-03T14:02:35.729Z,3.37
2023-05-03T14:05:03.195Z,3.30
2023-05-03T14:07:30.526Z,2.87
2023-05-03T14:09:57.835Z,3.10
2023-05-03T14:12:27.371Z,3.00
2023-05-03T14:14:54.992Z,3.40
2023-05-03T14:17:22.335Z,3.17
2023-05-03T14:19:49.656Z,3.20
2023-05-03T14:22:17.013Z,3.57
2023-05-03T14:24:45.476Z,3.50
2023-05-03T14:27:14.153Z,3.10
2023-05-03T14:29:41.758Z,3.20
2023-05-03T14:32:09.908Z,3.87
2023-05-03T14:34:37.575Z,3.20
2023-05-03T14:37:04.957Z,3.03
2023-05-03T14:39:32.340Z,3.13
2023-05-03T14:41:59.708Z,3.70
2023-05-03T14:44:27.668Z,3.37
2023-05-03T14:46:56.754Z,3.20
2023-05-03T14:49:24.123Z,2.87
2023-05-03T14:51:51.510Z,4.27
2023-05-03T14:54:19.568Z,16.00
2023-05-03T14:56:47.729Z,6.27
2023-05-03T14:59:15.314Z,3.37
2023-05-03T15:01:42.596Z,3.63
2023-05-03T15:04:10.534Z,4.90
2023-05-03T15:06:39.256Z,5.10
2023-05-03T15:09:08.410Z,2.93
2023-05-03T15:11:35.767Z,3.17
2023-05-03T15:14:03.235Z,3.07
2023-05-03T15:16:30.748Z,3.20
2023-05-03T15:18:58.071Z,2.50
2023-05-03T15:21:26.730Z,2.60
2023-05-03T15:23:54.403Z,3.20
2023-05-03T15:26:24.660Z,2.63
2023-05-03T15:28:52.048Z,3.30
2023-05-03T15:31:19.538Z,2.90
2023-05-03T15:33:47.149Z,2.60
2023-05-03T15:36:16.737Z,2.50
2023-05-03T15:38:44.121Z,2.60
2023-05-03T15:41:11.505Z,2.33
2023-05-03T15:43:38.951Z,2.20
2023-05-03T15:46:06.587Z,2.17
2023-05-03T15:48:33.961Z,2.30
2023-05-03T15:51:01.331Z,2.17
2023-05-03T15:53:28.642Z,2.30
2023-05-03T15:55:59.284Z,4.40
2023-05-03T15:58:28.510Z,2.47
2023-05-03T16:00:56.894Z,2.47
2023-05-03T16:03:24.882Z,2.53
2023-05-03T16:05:52.250Z,3.33
2023-05-03T16:08:22.363Z,2.47
2023-05-03T16:10:49.807Z,3.30
2023-05-03T16:13:17.220Z,3.80
2023-05-03T16:15:44.730Z,2.00
2023-05-03T16:18:12.577Z,2.90
2023-05-03T16:20:39.893Z,2.40
2023-05-03T16:23:07.853Z,4.03
2023-05-03T16:25:35.203Z,2.40
2023-05-03T16:28:02.517Z,3.03
2023-05-03T16:30:29.953Z,2.40
2023-05-03T16:32:57.588Z,2.30
2023-05-03T16:35:25.190Z,2.67
2023-05-03T16:37:52.824Z,3.30
2023-05-03T16:40:20.641Z,2.30
2023-05-03T16:42:50.381Z,2.30
2023-05-03T16:45:19.274Z,2.40
2023-05-03T16:47:47.099Z,2.20
2023-05-03T16:50:14.438Z,2.93
2023-05-03T16:52:42.671Z,2.80
2023-05-03T16:55:10.914Z,3.47
2023-05-03T16:57:39.519Z,2.13
2023-05-03T17:00:08.799Z,2.27
2023-05-03T17:02:37.220Z,2.33
2023-05-03T17:05:05.457Z,2.50
2023-05-03T17:07:33.461Z,2.27
2023-05-03T17:10:01.405Z,2.23
2023-05-03T17:12:29.130Z,2.33
2023-05-03T17:14:56.513Z,3.00
2023-05-03T17:17:23.911Z,2.90
2023-05-03T17:19:51.328Z,2.43
2023-05-03T17:22:18.634Z,2.27
2023-05-03T17:24:46.167Z,2.30
2023-05-03T17:27:13.511Z,2.77
2023-05-03T17:29:41.031Z,2.60
2023-05-03T17:32:08.558Z,1.77
2023-05-03T17:34:36.513Z,2.10
2023-05-03T17:37:03.869Z,2.40
2023-05-03T17:39:31.314Z,2.73
2023-05-03T17:41:58.971Z,2.30
2023-05-03T17:44:26.936Z,2.17
2023-05-03T17:46:54.409Z,2.13
2023-05-03T17:49:21.783Z,2.33
2023-05-03T17:51:49.075Z,2.17
2023-05-03T17:54:16.445Z,2.43
2023-05-03T17:56:46.738Z,2.53
2023-05-03T17:59:14.372Z,2.07
2023-05-03T18:01:41.763Z,2.23
2023-05-03T18:04:09.890Z,2.20
2023-05-03T18:06:37.258Z,1.93
2023-05-03T18:09:06.266Z,2.33
2023-05-03T18:11:33.564Z,3.10
2023-05-03T18:14:01.430Z,2.40
2023-05-03T18:16:28.934Z,2.10
2023-05-03T18:18:56.279Z,2.73
2023-05-03T18:21:23.575Z,2.13
2023-05-03T18:23:50.952Z,2.00
2023-05-03T18:26:18.322Z,2.20
2023-05-03T18:28:45.701Z,2.33
2023-05-03T18:31:13.093Z,2.03
2023-05-03T18:33:40.525Z,2.53
2023-05-03T18:36:12.269Z,2.60
2023-05-03T18:38:39.841Z,2.27
2023-05-03T18:41:13.159Z,2.73
2023-05-03T18:43:43.862Z,2.77
2023-05-03T18:46:11.578Z,2.70
2023-05-03T18:48:38.957Z,2.70
2023-05-03T18:51:06.884Z,2.50
2023-05-03T18:53:34.267Z,2.63
2023-05-03T18:56:03.490Z,2.80
2023-05-03T18:58:31.285Z,3.30
2023-05-03T19:01:00.097Z,2.53
2023-05-03T19:03:29.213Z,2.67
2023-05-03T19:05:57.174Z,2.43
2023-05-03T19:08:24.562Z,2.53
2023-05-03T19:10:51.932Z,2.57
2023-05-03T19:13:19.375Z,2.83
2023-05-03T19:15:46.807Z,2.93
2023-05-03T19:18:16.071Z,3.20
2023-05-03T19:20:43.158Z,2.80
2023-05-03T19:23:10.527Z,3.43
2023-05-03T19:25:37.904Z,3.13
2023-05-03T19:28:06.536Z,3.57
2023-05-03T19:30:34.395Z,2.80
2023-05-03T19:33:01.781Z,3.37
2023-05-03T19:35:29.290Z,3.03
2023-05-03T19:37:57.024Z,2.90
2023-05-03T19:40:24.681Z,2.60
2023-05-03T19:42:52.337Z,3.10
2023-05-03T19:45:19.717Z,3.37
2023-05-03T19:47:47.137Z,3.30
2023-05-03T19:50:14.467Z,3.47
2023-05-03T19:52:42.010Z,3.13
2023-05-03T19:55:09.523Z,2.53
2023-05-03T19:57:36.970Z,3.10
2023-05-03T20:00:05.343Z,3.00
2023-05-03T20:02:33.185Z,3.07
2023-05-03T20:05:00.678Z,2.77
2023-05-03T20:07:28.054Z,2.60
2023-05-03T20:09:55.357Z,3.30
2023-05-03T20:12:23.203Z,2.90
2023-05-03T20:14:50.828Z,2.57
2023-05-03T20:17:18.150Z,2.50
2023-05-03T20:19:45.502Z,2.97
2023-05-03T20:22:12.881Z,2.70
2023-05-03T20:24:40.284Z,2.90
2023-05-03T20:27:07.661Z,2.60
2023-05-03T20:29:35.047Z,3.00
2023-05-03T20:32:02.502Z,2.83
2023-05-03T20:34:30.187Z,2.60
2023-05-03T20:36:57.498Z,2.77
2023-05-03T20:39:24.806Z,2.70
2023-05-03T20:41:52.167Z,2.87
2023-05-03T20:44:19.503Z,2.63
2023-05-03T20:46:46.864Z,2.90
2023-05-03T20:49:14.701Z,2.80
2023-05-03T20:51:42.080Z,2.73
2023-05-03T20:54:09.444Z,2.87
2023-05-03T20:56:36.845Z,3.00
2023-05-03T20:59:04.784Z,2.80
2023-05-03T21:01:32.251Z,2.73
2023-05-03T21:03:59.705Z,3.40
2023-05-03T21:06:27.089Z,2.43
2023-05-03T21:08:54.439Z,2.97
2023-05-03T21:11:21.808Z,2.70
2023-05-03T21:13:49.134Z,2.73
2023-05-03T21:16:16.642Z,3.00
2023-05-03T21:18:43.966Z,2.90
2023-05-03T21:21:11.303Z,2.73
2023-05-03T21:23:38.756Z,2.53
2023-05-03T21:26:06.173Z,2.00
2023-05-03T21:28:33.482Z,2.80
2023-05-03T21:31:01.120Z,2.97
2023-05-03T21:33:28.506Z,2.93
2023-05-03T21:35:55.899Z,2.53
2023-05-03T21:38:23.241Z,2.77
2023-05-03T21:40:50.602Z,2.90
2023-05-03T21:43:17.907Z,2.83
2023-05-03T21:45:46.808Z,2.80
2023-05-03T21:48:14.284Z,3.20
2023-05-03T21:50:41.671Z,2.80
2023-05-03T21:53:09.030Z,2.93
2023-05-03T21:55:36.576Z,3.30
2023-05-03T21:58:03.899Z,3.17
2023-05-03T22:00:31.524Z,3.43
2023-05-03T22:02:58.931Z,3.13
2023-05-03T22:05:26.486Z,3.17
2023-05-03T22:07:53.787Z,3.00
2023-05-03T22:10:21.146Z,2.90
2023-05-03T22:12:48.635Z,3.37
2023-05-03T22:15:16.035Z,2.73
2023-05-03T22:17:43.399Z,2.77
2023-05-03T22:20:11.065Z,2.90
2023-05-03T22:22:38.501Z,2.83
2023-05-03T22:25:06.727Z,3.10
2023-05-03T22:27:34.085Z,3.83
2023-05-03T22:30:01.450Z,3.33
2023-05-03T22:32:28.964Z,3.33
2023-05-03T22:34:56.403Z,4.07
2023-05-03T22:37:23.781Z,3.40
2023-05-03T22:39:51.076Z,3.10
2023-05-03T22:42:18.468Z,3.83
2023-05-03T22:44:45.841Z,3.13
2023-05-03T22:47:13.228Z,3.30
2023-05-03T22:49:40.622Z,3.20
2023-05-03T22:52:08.827Z,3.90
2023-05-03T22:54:36.134Z,3.53
2023-05-03T22:57:03.506Z,3.40
2023-05-03T22:59:31.131Z,2.93
2023-05-03T23:01:58.486Z,3.20
2023-05-03T23:04:25.914Z,3.13
2023-05-03T23:06:53.769Z,3.10
2023-05-03T23:09:21.204Z,4.17
2023-05-03T23:11:48.588Z,4.00
2023-05-03T23:14:15.960Z,3.43
2023-05-03T23:16:43.392Z,3.47
2023-05-03T23:19:10.800Z,3.37
2023-05-03T23:21:38.191Z,4.10
2023-05-03T23:24:06.121Z,3.83
2023-05-03T23:26:33.503Z,3.60
2023-05-03T23:29:01.449Z,3.73
2023-05-03T23:31:31.440Z,4.13
2023-05-03T23:33:58.343Z,3.50
2023-05-03T23:36:25.677Z,3.87
2023-05-03T23:38:53.114Z,3.93
2023-05-03T23:41:20.438Z,4.17
2023-05-03T23:43:47.882Z,3.13
2023-05-03T23:46:15.564Z,3.70
2023-05-03T23:48:42.914Z,3.43
2023-05-03T23:51:10.379Z,3.57
2023-05-03T23:53:37.754Z,3.43
2023-05-03T23:56:05.191Z,3.87
2023-05-03T23:58:32.481Z,3.63
